sensor_id;sensor_type;location;lat;lon;timestamp;P1;durP1;ratioP1;P2;durP2;ratioP2
44328;SDS011;30039;51.462;6.892;2022-10-31T00:00:34;13.40;;;5.43;;
44328;SDS011;30039;51.462;6.892;2022-10-31T00:03:19;16.70;;;5.00;;
44328;SDS011;30039;51.462;6.892;2022-10-31T00:06:05;12.25;;;5.22;;
44328;SDS011;30039;51.462;6.892;2022-10-31T00:08:55;10.10;;;5.22;;
44328;SDS011;30039;51.462;6.892;2022-10-31T00:11:42;10.95;;;5.50;;
44328;SDS011;30039;51.462;6.892;2022-10-31T00:14:27;13.23;;;5.53;;
44328;SDS011;30039;51.462;6.892;2022-10-31T00:17:13;12.48;;;5.25;;
44328;SDS011;30039;51.462;6.892;2022-10-31T00:19:58;10.32;;;5.45;;
44328;SDS011;30039;51.462;6.892;2022-10-31T00:22:44;12.85;;;5.65;;
44328;SDS011;30039;51.462;6.892;2022-10-31T00:25:32;11.52;;;5.45;;
44328;SDS011;30039;51.462;6.892;2022-10-31T00:28:18;12.60;;;5.82;;
44328;SDS011;30039;51.462;6.892;2022-10-31T00:31:05;13.73;;;6.28;;
44328;SDS011;30039;51.462;6.892;2022-10-31T00:33:51;10.82;;;5.63;;
44328;SDS011;30039;51.462;6.892;2022-10-31T00:36:36;15.02;;;5.72;;
44328;SDS011;30039;51.462;6.892;2022-10-31T00:39:22;12.32;;;6.07;;
44328;SDS011;30039;51.462;6.892;2022-10-31T00:42:08;12.27;;;5.70;;
44328;SDS011;30039;51.462;6.892;2022-10-31T00:44:54;16.00;;;5.70;;
44328;SDS011;30039;51.462;6.892;2022-10-31T00:47:40;14.38;;;5.40;;
44328;SDS011;30039;51.462;6.892;2022-10-31T00:50:25;10.65;;;5.95;;
44328;SDS011;30039;51.462;6.892;2022-10-31T00:53:11;13.23;;;5.63;;
44328;SDS011;30039;51.462;6.892;2022-10-31T00:55:57;12.68;;;5.72;;
44328;SDS011;30039;51.462;6.892;2022-10-31T00:58:42;11.43;;;6.00;;
44328;SDS011;30039;51.462;6.892;2022-10-31T01:01:28;15.43;;;5.85;;
44328;SDS011;30039;51.462;6.892;2022-10-31T01:04:13;11.75;;;5.80;;
44328;SDS011;30039;51.462;6.892;2022-10-31T01:06:59;12.13;;;5.68;;
44328;SDS011;30039;51.462;6.892;2022-10-31T01:09:45;10.88;;;5.40;;
44328;SDS011;30039;51.462;6.892;2022-10-31T01:12:35;14.25;;;6.28;;
44328;SDS011;30039;51.462;6.892;2022-10-31T01:15:22;11.95;;;6.32;;
44328;SDS011;30039;51.462;6.892;2022-10-31T01:18:09;14.70;;;5.97;;
44328;SDS011;30039;51.462;6.892;2022-10-31T01:21:02;14.07;;;5.80;;
44328;SDS011;30039;51.462;6.892;2022-10-31T01:23:48;14.73;;;6.27;;
44328;SDS011;30039;51.462;6.892;2022-10-31T01:26:34;14.52;;;6.38;;
44328;SDS011;30039;51.462;6.892;2022-10-31T01:29:20;14.23;;;6.22;;
44328;SDS011;30039;51.462;6.892;2022-10-31T01:32:05;12.20;;;6.07;;
44328;SDS011;30039;51.462;6.892;2022-10-31T01:34:51;15.30;;;6.45;;
44328;SDS011;30039;51.462;6.892;2022-10-31T01:37:37;12.27;;;6.75;;
44328;SDS011;30039;51.462;6.892;2022-10-31T01:40:22;10.68;;;6.63;;
44328;SDS011;30039;51.462;6.892;2022-10-31T01:43:15;13.77;;;5.93;;
44328;SDS011;30039;51.462;6.892;2022-10-31T01:46:00;13.07;;;6.07;;
44328;SDS011;30039;51.462;6.892;2022-10-31T01:48:46;10.85;;;6.05;;
44328;SDS011;30039;51.462;6.892;2022-10-31T01:51:33;13.68;;;6.38;;
44328;SDS011;30039;51.462;6.892;2022-10-31T01:54:21;14.65;;;6.30;;
44328;SDS011;30039;51.462;6.892;2022-10-31T01:57:08;16.63;;;7.03;;
44328;SDS011;30039;51.462;6.892;2022-10-31T01:59:57;11.52;;;6.35;;
44328;SDS011;30039;51.462;6.892;2022-10-31T02:02:45;15.07;;;6.90;;
44328;SDS011;30039;51.462;6.892;2022-10-31T02:05:30;14.32;;;6.25;;
44328;SDS011;30039;51.462;6.892;2022-10-31T02:08:26;13.40;;;6.32;;
44328;SDS011;30039;51.462;6.892;2022-10-31T02:11:12;12.00;;;6.90;;
44328;SDS011;30039;51.462;6.892;2022-10-31T02:13:58;14.25;;;6.65;;
44328;SDS011;30039;51.462;6.892;2022-10-31T02:16:45;16.20;;;6.93;;
44328;SDS011;30039;51.462;6.892;2022-10-31T02:20:14;14.07;;;5.68;;
44328;SDS011;30039;51.462;6.892;2022-10-31T02:23:08;16.83;;;6.00;;
44328;SDS011;30039;51.462;6.892;2022-10-31T02:28:41;11.18;;;5.97;;
44328;SDS011;30039;51.462;6.892;2022-10-31T02:34:24;13.75;;;6.25;;
44328;SDS011;30039;51.462;6.892;2022-10-31T02:43:12;13.68;;;6.00;;
44328;SDS011;30039;51.462;6.892;2022-10-31T02:48:46;10.20;;;6.45;;
44328;SDS011;30039;51.462;6.892;2022-10-31T02:51:33;14.00;;;6.57;;
44328;SDS011;30039;51.462;6.892;2022-10-31T02:54:22;11.98;;;5.88;;
44328;SDS011;30039;51.462;6.892;2022-10-31T02:57:08;13.50;;;6.00;;
44328;SDS011;30039;51.462;6.892;2022-10-31T02:59:56;14.68;;;6.63;;
44328;SDS011;30039;51.462;6.892;2022-10-31T03:08:23;14.38;;;6.57;;
44328;SDS011;30039;51.462;6.892;2022-10-31T03:11:10;13.50;;;6.60;;
44328;SDS011;30039;51.462;6.892;2022-10-31T03:14:04;13.35;;;6.07;;
44328;SDS011;30039;51.462;6.892;2022-10-31T03:16:51;18.63;;;7.10;;
44328;SDS011;30039;51.462;6.892;2022-10-31T03:19:39;12.88;;;6.47;;
44328;SDS011;30039;51.462;6.892;2022-10-31T03:22:25;10.52;;;5.90;;
44328;SDS011;30039;51.462;6.892;2022-10-31T03:25:12;16.75;;;6.47;;
44328;SDS011;30039;51.462;6.892;2022-10-31T03:27:59;10.00;;;6.53;;
44328;SDS011;30039;51.462;6.892;2022-10-31T03:30:46;14.13;;;6.55;;
44328;SDS011;30039;51.462;6.892;2022-10-31T03:33:34;11.98;;;6.28;;
44328;SDS011;30039;51.462;6.892;2022-10-31T03:36:22;16.73;;;6.55;;
44328;SDS011;30039;51.462;6.892;2022-10-31T03:39:08;12.55;;;5.82;;
44328;SDS011;30039;51.462;6.892;2022-10-31T03:42:05;14.48;;;6.40;;
44328;SDS011;30039;51.462;6.892;2022-10-31T03:45:08;11.95;;;5.93;;
44328;SDS011;30039;51.462;6.892;2022-10-31T03:47:56;10.70;;;6.07;;
44328;SDS011;30039;51.462;6.892;2022-10-31T03:50:49;12.88;;;6.05;;
44328;SDS011;30039;51.462;6.892;2022-10-31T03:53:42;12.07;;;5.97;;
44328;SDS011;30039;51.462;6.892;2022-10-31T03:59:24;16.17;;;6.28;;
44328;SDS011;30039;51.462;6.892;2022-10-31T04:02:13;12.35;;;5.88;;
44328;SDS011;30039;51.462;6.892;2022-10-31T04:05:00;11.55;;;5.63;;
44328;SDS011;30039;51.462;6.892;2022-10-31T04:07:47;14.77;;;6.20;;
44328;SDS011;30039;51.462;6.892;2022-10-31T04:10:35;10.02;;;5.70;;
44328;SDS011;30039;51.462;6.892;2022-10-31T04:13:27;20.83;;;9.43;;
44328;SDS011;30039;51.462;6.892;2022-10-31T04:16:14;14.02;;;7.07;;
44328;SDS011;30039;51.462;6.892;2022-10-31T04:19:00;10.88;;;6.57;;
44328;SDS011;30039;51.462;6.892;2022-10-31T04:21:46;13.10;;;6.85;;
44328;SDS011;30039;51.462;6.892;2022-10-31T04:24:33;12.32;;;6.60;;
44328;SDS011;30039;51.462;6.892;2022-10-31T04:27:19;14.15;;;6.32;;
44328;SDS011;30039;51.462;6.892;2022-10-31T04:30:05;10.38;;;6.07;;
44328;SDS011;30039;51.462;6.892;2022-10-31T04:32:50;14.52;;;7.32;;
44328;SDS011;30039;51.462;6.892;2022-10-31T04:35:36;12.20;;;6.07;;
44328;SDS011;30039;51.462;6.892;2022-10-31T04:38:22;13.85;;;6.20;;
44328;SDS011;30039;51.462;6.892;2022-10-31T04:41:08;16.98;;;6.40;;
44328;SDS011;30039;51.462;6.892;2022-10-31T04:43:58;13.07;;;6.93;;
44328;SDS011;30039;51.462;6.892;2022-10-31T04:46:44;11.95;;;6.68;;
44328;SDS011;30039;51.462;6.892;2022-10-31T04:49:29;12.55;;;6.57;;
44328;SDS011;30039;51.462;6.892;2022-10-31T04:52:15;13.75;;;6.65;;
44328;SDS011;30039;51.462;6.892;2022-10-31T04:55:00;11.90;;;7.10;;
44328;SDS011;30039;51.462;6.892;2022-10-31T04:57:47;16.42;;;6.68;;
44328;SDS011;30039;51.462;6.892;2022-10-31T05:00:33;12.52;;;6.07;;
44328;SDS011;30039;51.462;6.892;2022-10-31T05:03:20;17.15;;;6.13;;
44328;SDS011;30039;51.462;6.892;2022-10-31T05:06:06;13.15;;;6.22;;
44328;SDS011;30039;51.462;6.892;2022-10-31T05:08:52;14.45;;;6.88;;
44328;SDS011;30039;51.462;6.892;2022-10-31T05:11:38;11.23;;;5.72;;
44328;SDS011;30039;51.462;6.892;2022-10-31T05:14:23;14.13;;;6.55;;
44328;SDS011;30039;51.462;6.892;2022-10-31T05:17:09;13.82;;;7.25;;
44328;SDS011;30039;51.462;6.892;2022-10-31T05:19:55;12.98;;;6.72;;
44328;SDS011;30039;51.462;6.892;2022-10-31T05:22:44;14.75;;;7.03;;
44328;SDS011;30039;51.462;6.892;2022-10-31T05:25:29;13.55;;;6.88;;
44328;SDS011;30039;51.462;6.892;2022-10-31T05:28:16;10.43;;;6.88;;
44328;SDS011;30039;51.462;6.892;2022-10-31T05:31:01;14.02;;;6.72;;
44328;SDS011;30039;51.462;6.892;2022-10-31T05:33:49;11.52;;;7.07;;
44328;SDS011;30039;51.462;6.892;2022-10-31T05:36:41;12.68;;;6.70;;
44328;SDS011;30039;51.462;6.892;2022-10-31T05:39:28;14.90;;;7.35;;
44328;SDS011;30039;51.462;6.892;2022-10-31T05:42:14;13.18;;;7.00;;
44328;SDS011;30039;51.462;6.892;2022-10-31T05:45:00;13.57;;;7.93;;
44328;SDS011;30039;51.462;6.892;2022-10-31T05:47:52;15.23;;;7.43;;
44328;SDS011;30039;51.462;6.892;2022-10-31T05:50:38;14.07;;;6.90;;
44328;SDS011;30039;51.462;6.892;2022-10-31T05:53:25;13.82;;;7.68;;
44328;SDS011;30039;51.462;6.892;2022-10-31T05:56:10;14.07;;;7.40;;
44328;SDS011;30039;51.462;6.892;2022-10-31T05:58:57;15.20;;;7.75;;
44328;SDS011;30039;51.462;6.892;2022-10-31T06:01:43;16.08;;;7.30;;
44328;SDS011;30039;51.462;6.892;2022-10-31T06:04:29;17.85;;;8.10;;
44328;SDS011;30039;51.462;6.892;2022-10-31T06:07:14;16.58;;;7.38;;
44328;SDS011;30039;51.462;6.892;2022-10-31T06:10:01;16.05;;;7.57;;
44328;SDS011;30039;51.462;6.892;2022-10-31T06:12:47;15.85;;;8.10;;
44328;SDS011;30039;51.462;6.892;2022-10-31T06:15:32;11.27;;;7.30;;
44328;SDS011;30039;51.462;6.892;2022-10-31T06:18:19;22.25;;;9.55;;
44328;SDS011;30039;51.462;6.892;2022-10-31T06:21:07;13.95;;;8.00;;
44328;SDS011;30039;51.462;6.892;2022-10-31T06:23:53;16.88;;;8.50;;
44328;SDS011;30039;51.462;6.892;2022-10-31T06:26:39;15.85;;;8.48;;
44328;SDS011;30039;51.462;6.892;2022-10-31T06:29:27;13.55;;;7.82;;
44328;SDS011;30039;51.462;6.892;2022-10-31T06:32:13;16.95;;;7.97;;
44328;SDS011;30039;51.462;6.892;2022-10-31T06:34:58;16.48;;;8.95;;
44328;SDS011;30039;51.462;6.892;2022-10-31T06:37:53;14.43;;;8.30;;
44328;SDS011;30039;51.462;6.892;2022-10-31T06:40:39;15.70;;;8.43;;
44328;SDS011;30039;51.462;6.892;2022-10-31T06:43:27;19.23;;;9.00;;
44328;SDS011;30039;51.462;6.892;2022-10-31T06:46:13;19.17;;;10.15;;
44328;SDS011;30039;51.462;6.892;2022-10-31T06:48:59;16.48;;;9.02;;
44328;SDS011;30039;51.462;6.892;2022-10-31T06:51:47;17.13;;;8.82;;
44328;SDS011;30039;51.462;6.892;2022-10-31T06:54:33;16.70;;;8.77;;
44328;SDS011;30039;51.462;6.892;2022-10-31T06:57:20;14.52;;;8.55;;
44328;SDS011;30039;51.462;6.892;2022-10-31T07:00:06;20.73;;;9.60;;
44328;SDS011;30039;51.462;6.892;2022-10-31T07:05:40;18.38;;;9.20;;
44328;SDS011;30039;51.462;6.892;2022-10-31T07:08:27;15.32;;;8.27;;
44328;SDS011;30039;51.462;6.892;2022-10-31T07:11:14;15.13;;;8.25;;
44328;SDS011;30039;51.462;6.892;2022-10-31T07:14:00;13.20;;;8.10;;
44328;SDS011;30039;51.462;6.892;2022-10-31T07:16:50;15.57;;;8.45;;
44328;SDS011;30039;51.462;6.892;2022-10-31T07:19:39;19.65;;;9.10;;
44328;SDS011;30039;51.462;6.892;2022-10-31T07:22:36;16.50;;;8.77;;
44328;SDS011;30039;51.462;6.892;2022-10-31T07:25:22;16.30;;;8.02;;
44328;SDS011;30039;51.462;6.892;2022-10-31T07:28:08;14.13;;;8.32;;
44328;SDS011;30039;51.462;6.892;2022-10-31T07:30:57;21.35;;;8.82;;
44328;SDS011;30039;51.462;6.892;2022-10-31T07:33:43;12.95;;;8.02;;
44328;SDS011;30039;51.462;6.892;2022-10-31T07:36:29;14.45;;;7.95;;
44328;SDS011;30039;51.462;6.892;2022-10-31T07:39:16;16.65;;;7.55;;
44328;SDS011;30039;51.462;6.892;2022-10-31T07:42:02;16.77;;;7.70;;
44328;SDS011;30039;51.462;6.892;2022-10-31T07:44:48;16.63;;;8.57;;
44328;SDS011;30039;51.462;6.892;2022-10-31T07:47:49;15.55;;;8.32;;
44328;SDS011;30039;51.462;6.892;2022-10-31T07:50:35;16.58;;;8.68;;
44328;SDS011;30039;51.462;6.892;2022-10-31T07:53:21;15.90;;;8.50;;
44328;SDS011;30039;51.462;6.892;2022-10-31T07:56:07;16.00;;;7.70;;
44328;SDS011;30039;51.462;6.892;2022-10-31T07:58:53;17.05;;;9.00;;
44328;SDS011;30039;51.462;6.892;2022-10-31T08:01:39;17.02;;;9.32;;
44328;SDS011;30039;51.462;6.892;2022-10-31T08:04:25;17.80;;;8.77;;
44328;SDS011;30039;51.462;6.892;2022-10-31T08:07:11;19.08;;;8.35;;
44328;SDS011;30039;51.462;6.892;2022-10-31T08:09:57;18.52;;;8.82;;
44328;SDS011;30039;51.462;6.892;2022-10-31T08:12:43;14.98;;;8.50;;
44328;SDS011;30039;51.462;6.892;2022-10-31T08:15:29;14.40;;;8.95;;
44328;SDS011;30039;51.462;6.892;2022-10-31T08:18:15;32.97;;;10.70;;
44328;SDS011;30039;51.462;6.892;2022-10-31T08:21:01;25.17;;;9.25;;
44328;SDS011;30039;51.462;6.892;2022-10-31T08:23:46;16.33;;;8.18;;
44328;SDS011;30039;51.462;6.892;2022-10-31T08:26:32;17.17;;;8.85;;
44328;SDS011;30039;51.462;6.892;2022-10-31T08:29:18;15.85;;;8.80;;
44328;SDS011;30039;51.462;6.892;2022-10-31T08:32:04;13.73;;;8.35;;
44328;SDS011;30039;51.462;6.892;2022-10-31T08:34:50;20.25;;;8.48;;
44328;SDS011;30039;51.462;6.892;2022-10-31T08:37:36;17.40;;;8.35;;
44328;SDS011;30039;51.462;6.892;2022-10-31T08:40:26;20.38;;;9.55;;
44328;SDS011;30039;51.462;6.892;2022-10-31T08:43:12;21.52;;;8.75;;
44328;SDS011;30039;51.462;6.892;2022-10-31T08:45:58;19.75;;;9.07;;
44328;SDS011;30039;51.462;6.892;2022-10-31T08:48:46;18.63;;;9.32;;
44328;SDS011;30039;51.462;6.892;2022-10-31T08:51:32;17.33;;;10.05;;
44328;SDS011;30039;51.462;6.892;2022-10-31T08:54:32;18.50;;;9.68;;
44328;SDS011;30039;51.462;6.892;2022-10-31T08:57:18;14.73;;;8.32;;
44328;SDS011;30039;51.462;6.892;2022-10-31T09:00:05;20.52;;;9.73;;
44328;SDS011;30039;51.462;6.892;2022-10-31T09:03:05;18.40;;;9.80;;
44328;SDS011;30039;51.462;6.892;2022-10-31T09:05:57;26.52;;;9.38;;
44328;SDS011;30039;51.462;6.892;2022-10-31T09:08:44;20.17;;;10.55;;
44328;SDS011;30039;51.462;6.892;2022-10-31T09:11:29;22.33;;;10.95;;
44328;SDS011;30039;51.462;6.892;2022-10-31T09:14:15;17.45;;;9.68;;
44328;SDS011;30039;51.462;6.892;2022-10-31T09:17:01;26.58;;;10.73;;
44328;SDS011;30039;51.462;6.892;2022-10-31T09:19:47;26.88;;;11.40;;
44328;SDS011;30039;51.462;6.892;2022-10-31T09:22:33;28.38;;;11.98;;
44328;SDS011;30039;51.462;6.892;2022-10-31T09:25:19;24.40;;;11.27;;
44328;SDS011;30039;51.462;6.892;2022-10-31T09:28:05;23.65;;;11.55;;
44328;SDS011;30039;51.462;6.892;2022-10-31T09:30:52;22.63;;;10.63;;
44328;SDS011;30039;51.462;6.892;2022-10-31T09:33:39;22.92;;;11.25;;
44328;SDS011;30039;51.462;6.892;2022-10-31T09:36:24;24.98;;;11.32;;
44328;SDS011;30039;51.462;6.892;2022-10-31T09:39:10;25.48;;;11.15;;
44328;SDS011;30039;51.462;6.892;2022-10-31T09:45:02;20.17;;;11.15;;
44328;SDS011;30039;51.462;6.892;2022-10-31T09:53:38;24.60;;;10.93;;
44328;SDS011;30039;51.462;6.892;2022-10-31T09:56:25;25.10;;;11.50;;
44328;SDS011;30039;51.462;6.892;2022-10-31T09:59:12;24.83;;;11.98;;
44328;SDS011;30039;51.462;6.892;2022-10-31T10:02:02;29.08;;;12.15;;
44328;SDS011;30039;51.462;6.892;2022-10-31T10:08:25;24.85;;;12.43;;
44328;SDS011;30039;51.462;6.892;2022-10-31T10:10:51;29.65;;;12.05;;
44328;SDS011;30039;51.462;6.892;2022-10-31T10:19:41;27.25;;;12.20;;
44328;SDS011;30039;51.462;6.892;2022-10-31T10:25:32;22.90;;;11.63;;
44328;SDS011;30039;51.462;6.892;2022-10-31T10:28:26;26.48;;;11.68;;
44328;SDS011;30039;51.462;6.892;2022-10-31T10:31:19;25.17;;;12.02;;
44328;SDS011;30039;51.462;6.892;2022-10-31T10:37:02;28.45;;;11.95;;
44328;SDS011;30039;51.462;6.892;2022-10-31T10:39:50;25.65;;;11.93;;
44328;SDS011;30039;51.462;6.892;2022-10-31T10:42:37;27.85;;;12.73;;
44328;SDS011;30039;51.462;6.892;2022-10-31T10:45:42;22.60;;;11.90;;
44328;SDS011;30039;51.462;6.892;2022-10-31T10:51:59;23.00;;;11.63;;
44328;SDS011;30039;51.462;6.892;2022-10-31T11:00:43;25.05;;;11.90;;
44328;SDS011;30039;51.462;6.892;2022-10-31T11:03:31;25.33;;;11.20;;
44328;SDS011;30039;51.462;6.892;2022-10-31T11:06:21;25.42;;;10.90;;
44328;SDS011;30039;51.462;6.892;2022-10-31T11:09:10;24.75;;;11.30;;
44328;SDS011;30039;51.462;6.892;2022-10-31T11:12:00;24.52;;;10.35;;
44328;SDS011;30039;51.462;6.892;2022-10-31T11:17:37;22.33;;;10.88;;
44328;SDS011;30039;51.462;6.892;2022-10-31T11:23:28;19.92;;;10.70;;
44328;SDS011;30039;51.462;6.892;2022-10-31T11:26:20;22.90;;;10.93;;
44328;SDS011;30039;51.462;6.892;2022-10-31T11:29:30;25.65;;;10.90;;
44328;SDS011;30039;51.462;6.892;2022-10-31T11:32:20;23.90;;;11.30;;
44328;SDS011;30039;51.462;6.892;2022-10-31T11:35:09;22.70;;;10.93;;
44328;SDS011;30039;51.462;6.892;2022-10-31T11:38:04;23.15;;;10.90;;
44328;SDS011;30039;51.462;6.892;2022-10-31T11:40:55;20.60;;;9.90;;
44328;SDS011;30039;51.462;6.892;2022-10-31T11:43:45;18.90;;;10.20;;
44328;SDS011;30039;51.462;6.892;2022-10-31T11:46:44;25.15;;;10.73;;
44328;SDS011;30039;51.462;6.892;2022-10-31T11:49:34;24.00;;;10.57;;
44328;SDS011;30039;51.462;6.892;2022-10-31T11:52:25;18.98;;;9.15;;
44328;SDS011;30039;51.462;6.892;2022-10-31T11:57:57;22.75;;;9.90;;
44328;SDS011;30039;51.462;6.892;2022-10-31T12:00:50;21.02;;;9.57;;
44328;SDS011;30039;51.462;6.892;2022-10-31T12:03:53;17.83;;;8.18;;
44328;SDS011;30039;51.462;6.892;2022-10-31T12:06:41;16.83;;;8.40;;
44328;SDS011;30039;51.462;6.892;2022-10-31T12:09:32;14.02;;;7.60;;
44328;SDS011;30039;51.462;6.892;2022-10-31T12:33:15;14.50;;;7.45;;
44328;SDS011;30039;51.462;6.892;2022-10-31T12:38:56;15.80;;;6.28;;
44328;SDS011;30039;51.462;6.892;2022-10-31T13:01:59;15.02;;;5.82;;
44328;SDS011;30039;51.462;6.892;2022-10-31T13:07:36;12.20;;;5.63;;
44328;SDS011;30039;51.462;6.892;2022-10-31T13:13:23;13.38;;;6.18;;
44328;SDS011;30039;51.462;6.892;2022-10-31T13:16:21;12.00;;;5.35;;
44328;SDS011;30039;51.462;6.892;2022-10-31T13:19:22;12.18;;;5.55;;
44328;SDS011;30039;51.462;6.892;2022-10-31T13:22:14;13.50;;;5.38;;
44328;SDS011;30039;51.462;6.892;2022-10-31T13:27:48;15.82;;;5.55;;
44328;SDS011;30039;51.462;6.892;2022-10-31T13:30:36;10.90;;;5.28;;
44328;SDS011;30039;51.462;6.892;2022-10-31T13:33:25;11.55;;;5.25;;
44328;SDS011;30039;51.462;6.892;2022-10-31T13:36:34;10.10;;;4.97;;
44328;SDS011;30039;51.462;6.892;2022-10-31T13:42:39;11.32;;;4.75;;
44328;SDS011;30039;51.462;6.892;2022-10-31T13:45:29;10.82;;;4.50;;
44328;SDS011;30039;51.462;6.892;2022-10-31T13:51:05;13.55;;;4.32;;
44328;SDS011;30039;51.462;6.892;2022-10-31T13:56:41;9.98;;;4.57;;
44328;SDS011;30039;51.462;6.892;2022-10-31T13:59:27;13.05;;;4.47;;
44328;SDS011;30039;51.462;6.892;2022-10-31T14:02:14;9.30;;;4.30;;
44328;SDS011;30039;51.462;6.892;2022-10-31T14:05:14;10.13;;;4.03;;
44328;SDS011;30039;51.462;6.892;2022-10-31T14:08:05;13.45;;;4.30;;
44328;SDS011;30039;51.462;6.892;2022-10-31T14:10:52;13.40;;;4.15;;
44328;SDS011;30039;51.462;6.892;2022-10-31T14:13:42;7.45;;;3.38;;
44328;SDS011;30039;51.462;6.892;2022-10-31T14:16:30;14.27;;;3.80;;
44328;SDS011;30039;51.462;6.892;2022-10-31T14:19:17;14.30;;;3.90;;
44328;SDS011;30039;51.462;6.892;2022-10-31T14:22:03;9.52;;;3.53;;
44328;SDS011;30039;51.462;6.892;2022-10-31T14:24:49;6.95;;;3.45;;
44328;SDS011;30039;51.462;6.892;2022-10-31T14:27:42;10.23;;;3.53;;
44328;SDS011;30039;51.462;6.892;2022-10-31T14:30:29;14.75;;;3.90;;
44328;SDS011;30039;51.462;6.892;2022-10-31T14:33:17;13.32;;;3.42;;
44328;SDS011;30039;51.462;6.892;2022-10-31T14:36:09;9.88;;;3.28;;
44328;SDS011;30039;51.462;6.892;2022-10-31T14:39:03;7.85;;;3.55;;
44328;SDS011;30039;51.462;6.892;2022-10-31T14:42:15;9.30;;;3.80;;
44328;SDS011;30039;51.462;6.892;2022-10-31T14:53:52;10.75;;;3.60;;
44328;SDS011;30039;51.462;6.892;2022-10-31T14:56:43;9.40;;;3.20;;
44328;SDS011;30039;51.462;6.892;2022-10-31T14:59:33;9.68;;;5.05;;
44328;SDS011;30039;51.462;6.892;2022-10-31T15:03:10;8.68;;;3.53;;
44328;SDS011;30039;51.462;6.892;2022-10-31T15:05:27;11.07;;;3.95;;
44328;SDS011;30039;51.462;6.892;2022-10-31T15:08:37;9.40;;;3.53;;
44328;SDS011;30039;51.462;6.892;2022-10-31T15:11:36;10.07;;;3.15;;
44328;SDS011;30039;51.462;6.892;2022-10-31T15:14:27;7.88;;;3.40;;
44328;SDS011;30039;51.462;6.892;2022-10-31T15:17:17;7.75;;;3.30;;
44328;SDS011;30039;51.462;6.892;2022-10-31T15:20:07;8.20;;;3.90;;
44328;SDS011;30039;51.462;6.892;2022-10-31T15:22:57;9.07;;;3.10;;
44328;SDS011;30039;51.462;6.892;2022-10-31T15:25:43;7.03;;;3.20;;
44328;SDS011;30039;51.462;6.892;2022-10-31T15:28:32;7.72;;;2.83;;
44328;SDS011;30039;51.462;6.892;2022-10-31T15:31:18;6.85;;;3.20;;
44328;SDS011;30039;51.462;6.892;2022-10-31T15:34:05;10.25;;;3.10;;
44328;SDS011;30039;51.462;6.892;2022-10-31T15:36:54;8.18;;;3.22;;
44328;SDS011;30039;51.462;6.892;2022-10-31T15:40:30;7.35;;;3.20;;
44328;SDS011;30039;51.462;6.892;2022-10-31T15:43:18;7.50;;;3.05;;
44328;SDS011;30039;51.462;6.892;2022-10-31T15:46:13;7.88;;;3.40;;
44328;SDS011;30039;51.462;6.892;2022-10-31T15:49:01;8.63;;;3.67;;
44328;SDS011;30039;51.462;6.892;2022-10-31T15:51:47;7.05;;;3.35;;
44328;SDS011;30039;51.462;6.892;2022-10-31T15:54:34;6.95;;;2.95;;
44328;SDS011;30039;51.462;6.892;2022-10-31T15:57:22;10.68;;;3.78;;
44328;SDS011;30039;51.462;6.892;2022-10-31T16:03:22;8.13;;;3.60;;
44328;SDS011;30039;51.462;6.892;2022-10-31T16:06:18;12.40;;;5.00;;
44328;SDS011;30039;51.462;6.892;2022-10-31T16:09:27;16.85;;;9.65;;
44328;SDS011;30039;51.462;6.892;2022-10-31T16:12:13;16.05;;;7.68;;
44328;SDS011;30039;51.462;6.892;2022-10-31T16:15:00;12.85;;;7.35;;
44328;SDS011;30039;51.462;6.892;2022-10-31T16:17:48;12.82;;;5.35;;
44328;SDS011;30039;51.462;6.892;2022-10-31T16:20:34;19.33;;;12.38;;
44328;SDS011;30039;51.462;6.892;2022-10-31T16:23:21;15.18;;;7.22;;
44328;SDS011;30039;51.462;6.892;2022-10-31T16:26:09;18.65;;;13.23;;
44328;SDS011;30039;51.462;6.892;2022-10-31T16:28:56;18.67;;;9.80;;
44328;SDS011;30039;51.462;6.892;2022-10-31T16:31:42;16.05;;;9.98;;
44328;SDS011;30039;51.462;6.892;2022-10-31T16:34:27;18.05;;;6.07;;
44328;SDS011;30039;51.462;6.892;2022-10-31T16:37:13;12.20;;;5.60;;
44328;SDS011;30039;51.462;6.892;2022-10-31T16:39:59;11.60;;;5.18;;
44328;SDS011;30039;51.462;6.892;2022-10-31T16:42:45;10.55;;;4.15;;
44328;SDS011;30039;51.462;6.892;2022-10-31T16:45:33;9.98;;;4.45;;
44328;SDS011;30039;51.462;6.892;2022-10-31T16:48:20;8.27;;;4.88;;
44328;SDS011;30039;51.462;6.892;2022-10-31T16:51:07;10.55;;;4.10;;
44328;SDS011;30039;51.462;6.892;2022-10-31T16:53:54;17.70;;;8.25;;
44328;SDS011;30039;51.462;6.892;2022-10-31T16:56:42;14.48;;;6.57;;
44328;SDS011;30039;51.462;6.892;2022-10-31T16:59:28;15.18;;;6.63;;
44328;SDS011;30039;51.462;6.892;2022-10-31T17:02:15;11.10;;;5.22;;
44328;SDS011;30039;51.462;6.892;2022-10-31T17:05:01;9.68;;;4.82;;
44328;SDS011;30039;51.462;6.892;2022-10-31T17:07:47;14.07;;;5.50;;
44328;SDS011;30039;51.462;6.892;2022-10-31T17:10:33;12.13;;;6.75;;
44328;SDS011;30039;51.462;6.892;2022-10-31T17:13:21;11.45;;;6.03;;
44328;SDS011;30039;51.462;6.892;2022-10-31T17:16:07;9.23;;;5.28;;
44328;SDS011;30039;51.462;6.892;2022-10-31T17:18:54;9.93;;;5.82;;
44328;SDS011;30039;51.462;6.892;2022-10-31T17:28:26;10.13;;;5.72;;
44328;SDS011;30039;51.462;6.892;2022-10-31T17:31:48;12.05;;;5.85;;
44328;SDS011;30039;51.462;6.892;2022-10-31T17:34:29;11.32;;;5.03;;
44328;SDS011;30039;51.462;6.892;2022-10-31T17:37:16;8.82;;;4.93;;
44328;SDS011;30039;51.462;6.892;2022-10-31T17:40:01;13.65;;;7.60;;
44328;SDS011;30039;51.462;6.892;2022-10-31T17:42:54;16.50;;;5.40;;
44328;SDS011;30039;51.462;6.892;2022-10-31T17:45:40;11.88;;;6.43;;
44328;SDS011;30039;51.462;6.892;2022-10-31T17:48:26;12.55;;;6.05;;
44328;SDS011;30039;51.462;6.892;2022-10-31T17:51:13;12.88;;;5.60;;
44328;SDS011;30039;51.462;6.892;2022-10-31T17:53:59;9.57;;;4.25;;
44328;SDS011;30039;51.462;6.892;2022-10-31T17:56:45;14.40;;;5.80;;
44328;SDS011;30039;51.462;6.892;2022-10-31T17:59:31;9.02;;;3.67;;
44328;SDS011;30039;51.462;6.892;2022-10-31T18:02:17;8.73;;;2.70;;
44328;SDS011;30039;51.462;6.892;2022-10-31T18:05:03;9.90;;;3.35;;
44328;SDS011;30039;51.462;6.892;2022-10-31T18:07:49;5.25;;;2.58;;
44328;SDS011;30039;51.462;6.892;2022-10-31T18:10:37;7.82;;;2.40;;
44328;SDS011;30039;51.462;6.892;2022-10-31T18:13:23;9.60;;;2.42;;
44328;SDS011;30039;51.462;6.892;2022-10-31T18:16:10;5.63;;;2.50;;
44328;SDS011;30039;51.462;6.892;2022-10-31T18:18:57;8.90;;;2.50;;
44328;SDS011;30039;51.462;6.892;2022-10-31T18:21:55;10.68;;;2.40;;
44328;SDS011;30039;51.462;6.892;2022-10-31T18:24:41;4.45;;;2.20;;
44328;SDS011;30039;51.462;6.892;2022-10-31T18:27:27;4.80;;;2.15;;
44328;SDS011;30039;51.462;6.892;2022-10-31T18:30:12;7.07;;;2.28;;
44328;SDS011;30039;51.462;6.892;2022-10-31T18:32:58;4.88;;;2.40;;
44328;SDS011;30039;51.462;6.892;2022-10-31T18:35:44;9.77;;;2.05;;
44328;SDS011;30039;51.462;6.892;2022-10-31T18:38:30;5.38;;;1.95;;
44328;SDS011;30039;51.462;6.892;2022-10-31T18:41:17;6.40;;;2.15;;
44328;SDS011;30039;51.462;6.892;2022-10-31T18:44:03;4.88;;;2.00;;
44328;SDS011;30039;51.462;6.892;2022-10-31T18:46:48;5.05;;;2.20;;
44328;SDS011;30039;51.462;6.892;2022-10-31T18:49:34;5.13;;;2.28;;
44328;SDS011;30039;51.462;6.892;2022-10-31T18:52:21;8.73;;;2.35;;
44328;SDS011;30039;51.462;6.892;2022-10-31T18:55:06;2.92;;;1.80;;
44328;SDS011;30039;51.462;6.892;2022-10-31T18:57:52;3.50;;;1.90;;
44328;SDS011;30039;51.462;6.892;2022-10-31T19:00:38;10.30;;;2.45;;
44328;SDS011;30039;51.462;6.892;2022-10-31T19:03:24;3.47;;;2.05;;
44328;SDS011;30039;51.462;6.892;2022-10-31T19:06:10;8.30;;;2.55;;
44328;SDS011;30039;51.462;6.892;2022-10-31T19:09:00;8.43;;;2.40;;